Accueil
METAR-TAF:

METAR-TAF

Aéroports :

Curaçao, Antilles néerlandaises

Aéroport international de Curaçao

latitude: 12-12N, longitude: 068-58W, altitude: 9 m

Observation

Le bulletin a été fait il y a 20 minutes, à 16:00 UTC
Vent 11 kt de est
Température 26°C
Humidité 79%
Pression 1016 hPa
Visibilité 10 km ou plus
Quelques nuages à une hauteur de 1600 ft, Cumulus congestus.

METAR: TNCC 241600Z 09011KT 9999 FEW016TCU 26/22 Q1016 NOSIG

Heure: 12:20 (16:20 UTC)

Prévision

Le bulletin a été fait il y a 6 heures et 20 minutes, à 10:00 UTC
Prévision valable du 24 à 12 UTC au 25 à 12 UTC
Vent 14 kt de est
Visibilité 10 km ou plus
Nuages épars à une hauteur de 2000 ft
Temporairement
du 24 à 12 UTC au 25 à 12 UTC
Visibilité: 7000 m
Nuages fragmentés à une hauteur de 1500 ft
averses de pluie

TAF: TNCC 241000Z 2412/2512 09014KT 9999 SCT020 TEMPO 2412/2512 7000 SHRA BKN015

Observations et prévisions météorologiques de plus de 4000 aéroports (messages METAR et TAF).

Les stations disponibles sont représentées par des disques jaunes et rouges sur la carte.

Passer la souris dessus pour voir le nom de la station.

Cliquer dessus pour voir les observations et prévisions météorologiques.

Pour changer de carte: cliquez sur les boutons verts avec une croix noire pour zoomer, sur le bouton vert avec un tiret pour effectuer un zoom arrière, ou sur les flèches vertes pour les cartes adjacentes.


METAR-TAF: